Time;durP1;ratioP1;P1;durP2;ratioP2;P2;SDS_P1;SDS_P2;PMS_P1;PMS_P2;Temp;Humidity;BMP_temperature;BMP_pressure;BME280_temperature;BME280_humidity;BME280_pressure;Samples;Min_cycle;Max_cycle;Signal;HPM_P1;HPM_P2
2022/08/09 05:44:23;;;;;;;13.40;7.78;;;;;;;;;;5938195;23;20892;-64
2022/08/09 05:46:58;;;;;;;10.35;7.35;;;;;;;;;;4973596;28;20066;-64
2022/08/09 05:49:26;;;;;;;13.30;8.07;;;;;;;;;;4974777;28;20047;-64
2022/08/09 05:52:14;;;;;;;11.13;8.88;;;;;;;;;;4974851;28;20433;-64
2022/08/09 05:54:41;;;;;;;10.75;7.47;;;;;;;;;;4972930;28;20043;-64
2022/08/09 05:57:11;;;;;;;8.55;6.63;;;;;;;;;;4974205;28;20053;-64
2022/08/09 05:59:44;;;;;;;12.25;6.93;;;;;;;;;;4974295;28;20081;-65
2022/08/09 06:02:12;;;;;;;13.38;7.85;;;;;;;;;;4974957;28;20053;-64
2022/08/09 06:04:45;;;;;;;13.25;6.88;;;;;;;;;;4975559;28;20041;-64
2022/08/09 06:07:12;;;;;;;11.88;7.50;;;;;;;;;;4975748;28;20042;-64
2022/08/09 06:09:48;;;;;;;13.40;7.57;;;;;;;;;;4975106;28;20046;-67
2022/08/09 06:12:21;;;;;;;11.93;7.10;;;;;;;;;;4974998;28;20038;-64
2022/08/09 06:14:52;;;;;;;10.65;8.18;;;;;;;;;;4973284;28;20100;-65
2022/08/09 06:17:20;;;;;;;13.15;6.78;;;;;;;;;;4975318;28;20050;-65
2022/08/09 06:19:47;;;;;;;11.05;7.60;;;;;;;;;;4975248;28;20074;-65
2022/08/09 06:22:16;;;;;;;14.45;7.72;;;;;;;;;;4975113;28;20035;-64
2022/08/09 06:24:43;;;;;;;13.75;10.48;;;;;;;;;;4975279;28;20126;-65
2022/08/09 06:27:11;;;;;;;12.40;9.65;;;;;;;;;;4975136;28;20515;-64
2022/08/09 06:29:42;;;;;;;40.75;36.47;;;;;;;;;;4974872;28;20053;-64
2022/08/09 06:32:25;;;;;;;11.73;8.82;;;;;;;;;;4974624;28;20105;-64
2022/08/09 06:35:12;;;;;;;10.77;7.10;;;;;;;;;;4974454;28;20055;-64
2022/08/09 06:37:40;;;;;;;9.88;6.70;;;;;;;;;;4974084;28;20053;-64
2022/08/09 06:40:27;;;;;;;10.02;8.07;;;;;;;;;;4975047;28;20043;-65
2022/08/09 06:42:55;;;;;;;11.68;8.48;;;;;;;;;;4974654;28;20097;-64
2022/08/09 06:45:22;;;;;;;10.07;7.22;;;;;;;;;;4974904;28;20051;-64
2022/08/09 06:48:11;;;;;;;12.15;6.68;;;;;;;;;;4975316;28;20395;-64
2022/08/09 06:50:43;;;;;;;9.50;6.93;;;;;;;;;;4974916;28;20370;-64
2022/08/09 06:53:12;;;;;;;11.77;6.80;;;;;;;;;;4974963;28;20047;-64
2022/08/09 06:55:40;;;;;;;16.25;8.18;;;;;;;;;;4974810;28;20042;-64
2022/08/09 06:58:07;;;;;;;10.40;6.22;;;;;;;;;;4974784;28;20488;-64
2022/08/09 07:00:55;;;;;;;11.50;6.82;;;;;;;;;;4974780;28;20042;-64
2022/08/09 07:03:26;;;;;;;11.88;6.75;;;;;;;;;;4974750;28;20125;-64
2022/08/09 07:05:57;;;;;;;10.45;5.85;;;;;;;;;;4974558;28;20047;-64
2022/08/09 07:08:31;;;;;;;9.93;6.43;;;;;;;;;;4974616;28;20113;-64
2022/08/09 07:11:01;;;;;;;11.10;6.70;;;;;;;;;;4974490;28;20047;-64
2022/08/09 07:13:30;;;;;;;10.55;6.57;;;;;;;;;;4974621;28;20042;-64
2022/08/09 07:16:11;;;;;;;13.40;7.95;;;;;;;;;;4974804;28;20183;-64
2022/08/09 07:18:59;;;;;;;10.13;6.40;;;;;;;;;;4960232;28;20396;-64
2022/08/09 07:21:27;;;;;;;8.43;6.63;;;;;;;;;;4974351;28;20126;-63
2022/08/09 07:23:57;;;;;;;8.50;6.85;;;;;;;;;;4974415;28;20403;-64
2022/08/09 07:26:25;;;;;;;8.13;6.32;;;;;;;;;;4974299;28;20130;-64
2022/08/09 07:28:54;;;;;;;13.77;6.72;;;;;;;;;;4974394;28;20043;-64
2022/08/09 07:31:38;;;;;;;7.28;5.72;;;;;;;;;;4974252;28;20417;-64
2022/08/09 07:34:12;;;;;;;10.73;6.20;;;;;;;;;;4974347;28;20058;-64
2022/08/09 07:36:48;;;;;;;9.43;6.10;;;;;;;;;;4974160;28;20496;-64
2022/08/09 07:39:16;;;;;;;8.82;6.65;;;;;;;;;;4974168;28;20400;-64
2022/08/09 07:42:04;;;;;;;9.07;6.30;;;;;;;;;;4974394;28;20446;-64
2022/08/09 07:44:32;;;;;;;10.70;6.15;;;;;;;;;;4973969;28;20117;-64
2022/08/09 07:47:20;;;;;;;8.75;6.35;;;;;;;;;;4974184;28;20050;-64
2022/08/09 07:49:51;;;;;;;10.23;6.95;;;;;;;;;;4973579;28;20114;-64
2022/08/09 07:52:36;;;;;;;6.20;5.60;;;;;;;;;;4973779;28;20035;-64
2022/08/09 07:55:04;;;;;;;7.72;5.72;;;;;;;;;;4973821;28;20039;-64
2022/08/09 07:57:38;;;;;;;7.55;6.70;;;;;;;;;;4973633;28;20039;-64
2022/08/09 08:00:17;;;;;;;8.05;6.45;;;;;;;;;;4973587;28;20464;-65
2022/08/09 08:03:02;;;;;;;8.55;7.43;;;;;;;;;;4973693;28;20502;-64
2022/08/09 08:05:31;;;;;;;10.02;7.70;;;;;;;;;;4973542;28;20051;-64
2022/08/09 08:08:19;;;;;;;19.50;11.40;;;;;;;;;;4973663;28;20038;-64
2022/08/09 08:11:06;;;;;;;20.13;13.93;;;;;;;;;;4973395;28;20360;-64
2022/08/09 08:13:54;;;;;;;10.10;6.38;;;;;;;;;;4973324;28;20067;-64
2022/08/09 08:16:23;;;;;;;9.30;6.03;;;;;;;;;;4969272;28;20043;-64
2022/08/09 08:18:58;;;;;;;8.55;6.63;;;;;;;;;;4969434;28;20049;-64
2022/08/09 08:21:29;;;;;;;9.05;5.93;;;;;;;;;;4969672;28;20125;-64
2022/08/09 08:23:57;;;;;;;7.85;5.63;;;;;;;;;;4972497;28;20035;-64
2022/08/09 08:26:38;;;;;;;7.80;5.53;;;;;;;;;;4972535;28;20070;-65
2022/08/09 08:29:22;;;;;;;13.10;10.10;;;;;;;;;;4971580;28;20157;-65
2022/08/09 08:31:55;;;;;;;9.57;6.90;;;;;;;;;;4972848;28;20433;-65
2022/08/09 08:34:32;;;;;;;11.48;7.15;;;;;;;;;;4973498;28;20039;-64
2022/08/09 08:37:01;;;;;;;13.15;5.85;;;;;;;;;;4973489;28;20424;-65
2022/08/09 08:39:28;;;;;;;8.05;6.20;;;;;;;;;;4973465;28;20493;-65
2022/08/09 08:42:10;;;;;;;7.60;5.88;;;;;;;;;;4990165;28;20044;-65
2022/08/09 08:44:37;;;;;;;10.32;7.50;;;;;;;;;;4992566;28;20046;-64
2022/08/09 08:47:07;;;;;;;6.90;6.03;;;;;;;;;;4992559;28;20490;-64
2022/08/09 08:49:40;;;;;;;10.27;7.30;;;;;;;;;;4992651;28;20042;-65
2022/08/09 08:52:18;;;;;;;10.48;6.20;;;;;;;;;;4992486;28;20050;-64
2022/08/09 08:55:06;;;;;;;7.45;6.30;;;;;;;;;;4991911;28;20047;-64
2022/08/09 08:57:34;;;;;;;10.77;6.43;;;;;;;;;;4992279;28;20039;-64
2022/08/09 09:00:05;;;;;;;8.25;5.45;;;;;;;;;;4993972;28;20050;-63
2022/08/09 09:02:40;;;;;;;11.32;6.00;;;;;;;;;;4996276;28;20129;-64
2022/08/09 09:05:11;;;;;;;9.27;6.45;;;;;;;;;;4996044;28;20415;-63
2022/08/09 09:07:39;;;;;;;8.63;6.30;;;;;;;;;;4995953;28;20060;-64
2022/08/09 09:10:09;;;;;;;13.00;6.22;;;;;;;;;;4996078;28;20089;-63
2022/08/09 09:12:37;;;;;;;8.68;6.25;;;;;;;;;;4996042;28;20500;-64
2022/08/09 09:15:06;;;;;;;10.98;6.35;;;;;;;;;;4995999;28;20122;-64
2022/08/09 09:17:35;;;;;;;8.57;5.55;;;;;;;;;;4996108;28;20074;-64
2022/08/09 09:20:20;;;;;;;9.25;5.15;;;;;;;;;;4996049;28;20089;-64
2022/08/09 09:22:58;;;;;;;9.27;4.95;;;;;;;;;;4995830;28;20039;-65
2022/08/09 09:25:34;;;;;;;7.78;5.13;;;;;;;;;;4995817;28;20550;-64
2022/08/09 09:28:22;;;;;;;8.87;5.47;;;;;;;;;;4996322;28;20372;-64
2022/08/09 09:31:12;;;;;;;10.25;5.20;;;;;;;;;;4995924;28;20415;-64
2022/08/09 09:34:11;;;;;;;8.10;5.47;;;;;;;;;;4995782;28;20403;-64
2022/08/09 09:36:41;;;;;;;9.02;5.35;;;;;;;;;;4995801;28;20042;-64
2022/08/09 09:39:21;;;;;;;8.25;5.32;;;;;;;;;;4995644;28;20038;-64
2022/08/09 09:41:50;;;;;;;12.52;5.75;;;;;;;;;;4977378;28;20453;-63
2022/08/09 09:44:28;;;;;;;7.43;5.30;;;;;;;;;;4975939;28;20035;-63
2022/08/09 09:47:15;;;;;;;6.97;4.35;;;;;;;;;;4976079;28;20436;-63
2022/08/09 09:49:53;;;;;;;7.47;4.70;;;;;;;;;;4976127;28;20077;-64
2022/08/09 09:52:53;;;;;;;7.15;4.63;;;;;;;;;;4975792;28;20118;-63
2022/08/09 09:55:23;;;;;;;7.80;4.20;;;;;;;;;;4958625;28;20066;-63
2022/08/09 09:58:00;;;;;;;8.80;4.32;;;;;;;;;;4976294;28;20047;-62
2022/08/09 10:00:46;;;;;;;9.38;4.38;;;;;;;;;;4975856;28;20055;-63
2022/08/09 10:03:41;;;;;;;10.52;4.90;;;;;;;;;;4975945;28;20437;-63
2022/08/09 10:06:10;;;;;;;16.95;10.75;;;;;;;;;;4975865;28;20070;-62
2022/08/09 10:08:40;;;;;;;8.88;6.30;;;;;;;;;;4958637;28;20089;-63
2022/08/09 10:11:20;;;;;;;9.82;5.60;;;;;;;;;;4974932;28;20093;-63
2022/08/09 10:14:24;;;;;;;5.65;4.32;;;;;;;;;;4975607;28;20047;-63
2022/08/09 10:16:57;;;;;;;7.32;4.43;;;;;;;;;;4975334;28;20077;-63
2022/08/09 10:19:44;;;;;;;4.78;3.97;;;;;;;;;;4960918;28;20121;-70
2022/08/09 10:22:12;;;;;;;11.80;8.02;;;;;;;;;;4975440;28;20047;-66
2022/08/09 10:24:40;;;;;;;8.95;5.57;;;;;;;;;;4975606;28;20121;-72
2022/08/09 10:27:10;;;;;;;6.40;4.05;;;;;;;;;;4975232;28;20038;-68
2022/08/09 10:29:48;;;;;;;7.47;4.38;;;;;;;;;;4975343;28;20093;-72
2022/08/09 10:32:36;;;;;;;7.78;4.07;;;;;;;;;;4975032;28;20062;-73
2022/08/09 10:35:17;;;;;;;6.05;3.50;;;;;;;;;;4975076;28;20047;-65
2022/08/09 10:37:47;;;;;;;8.00;4.00;;;;;;;;;;4974925;28;20043;-64
2022/08/09 10:40:19;;;;;;;7.32;3.88;;;;;;;;;;4975148;28;20080;-63
2022/08/09 10:43:05;;;;;;;8.70;3.80;;;;;;;;;;4960428;28;20073;-64
2022/08/09 10:45:36;;;;;;;7.63;3.92;;;;;;;;;;4974632;28;20417;-64
2022/08/09 10:48:27;;;;;;;7.43;4.10;;;;;;;;;;4975055;28;20042;-62
2022/08/09 10:51:08;;;;;;;;;;;;;;;;;;4975420;28;20047;-70
2022/08/09 10:53:54;;;;;;;6.70;4.05;;;;;;;;;;4975257;28;20327;-76
2022/08/09 10:56:29;;;;;;;5.70;4.50;;;;;;;;;;4974894;28;20035;-65
2022/08/09 10:58:58;;;;;;;7.45;4.28;;;;;;;;;;4975112;28;20385;-78
2022/08/09 11:01:36;;;;;;;11.85;4.78;;;;;;;;;;4974854;28;20045;-65
2022/08/09 11:04:25;;;;;;;9.68;4.20;;;;;;;;;;4974039;28;20074;-63
2022/08/09 11:06:58;;;;;;;7.25;3.97;;;;;;;;;;4974463;28;20547;-65
2022/08/09 11:09:39;;;;;;;8.13;4.20;;;;;;;;;;4974438;28;20047;-65
2022/08/09 11:12:12;;;;;;;6.35;4.13;;;;;;;;;;4974517;28;20142;-65
2022/08/09 11:14:41;;;;;;;9.05;4.30;;;;;;;;;;4974617;28;20106;-66
2022/08/09 11:17:13;;;;;;;9.07;5.47;;;;;;;;;;4974453;28;20452;-66
2022/08/09 11:19:52;;;;;;;4.97;3.72;;;;;;;;;;4974759;28;20438;-65
2022/08/09 11:22:39;;;;;;;10.23;4.32;;;;;;;;;;4974711;28;20046;-64
2022/08/09 11:25:12;;;;;;;10.50;4.22;;;;;;;;;;4957273;28;20429;-63
2022/08/09 11:27:51;;;;;;;9.50;3.95;;;;;;;;;;4974243;28;20480;-63
2022/08/09 11:30:35;;;;;;;8.40;4.40;;;;;;;;;;4974296;28;20058;-63
2022/08/09 11:33:04;;;;;;;10.52;3.67;;;;;;;;;;4974396;28;20043;-62
2022/08/09 11:35:50;;;;;;;6.35;3.83;;;;;;;;;;4974026;28;20674;-62
2022/08/09 11:38:24;;;;;;;6.32;3.70;;;;;;;;;;4974165;28;20047;-62
2022/08/09 11:41:10;;;;;;;11.05;3.88;;;;;;;;;;4973876;28;20050;-62
2022/08/09 11:43:47;;;;;;;6.18;3.33;;;;;;;;;;4974042;28;20039;-63
2022/08/09 11:46:15;;;;;;;6.75;3.67;;;;;;;;;;4973689;28;20393;-63
2022/08/09 11:48:59;;;;;;;;;;;;;;;;;;4974349;28;20134;-63
2022/08/09 11:51:26;;;;;;;8.60;4.22;;;;;;;;;;4974063;28;19928;-64
2022/08/09 11:54:15;;;;;;;7.57;4.00;;;;;;;;;;4972906;28;20063;-63
2022/08/09 11:57:22;;;;;;;8.15;3.83;;;;;;;;;;4973480;28;20045;-63
2022/08/09 12:00:10;;;;;;;5.70;3.45;;;;;;;;;;4970853;28;20082;-63
2022/08/09 12:02:44;;;;;;;7.57;3.90;;;;;;;;;;4973863;28;20504;-64
2022/08/09 12:05:19;;;;;;;9.98;4.25;;;;;;;;;;4973109;28;20062;-63
2022/08/09 12:07:49;;;;;;;7.80;3.85;;;;;;;;;;4972835;28;20118;-63
2022/08/09 12:10:22;;;;;;;6.30;3.50;;;;;;;;;;4973243;28;20075;-63
2022/08/09 12:13:06;;;;;;;7.50;3.50;;;;;;;;;;4964995;28;20063;-64
2022/08/09 12:16:00;;;;;;;6.88;3.83;;;;;;;;;;4972999;28;20051;-64
2022/08/09 12:18:29;;;;;;;11.15;3.88;;;;;;;;;;4971826;28;20101;-65
2022/08/09 12:21:00;;;;;;;5.88;3.45;;;;;;;;;;4969309;28;20125;-65
2022/08/09 12:23:30;;;;;;;7.85;4.03;;;;;;;;;;4971492;28;20046;-65
2022/08/09 12:26:17;;;;;;;7.78;3.50;;;;;;;;;;4958865;28;20425;-64
2022/08/09 12:28:54;;;;;;;6.85;3.80;;;;;;;;;;4972755;28;20047;-65
2022/08/09 12:31:42;;;;;;;7.13;3.35;;;;;;;;;;4973546;28;20045;-65
2022/08/09 12:34:40;;;;;;;9.45;3.72;;;;;;;;;;4974466;28;20050;-65
2022/08/09 12:37:10;;;;;;;7.05;3.08;;;;;;;;;;4992289;28;20046;-65
2022/08/09 12:40:06;;;;;;;8.68;3.50;;;;;;;;;;4977360;28;20038;-65
2022/08/09 12:42:35;;;;;;;7.95;3.55;;;;;;;;;;4977313;28;20070;-64
2022/08/09 12:45:04;;;;;;;5.95;3.28;;;;;;;;;;4977181;28;20047;-64
2022/08/09 12:47:52;;;;;;;9.30;3.72;;;;;;;;;;4977209;28;20057;-64
2022/08/09 12:50:20;;;;;;;6.30;3.78;;;;;;;;;;4977207;28;20043;-64
2022/08/09 12:52:51;;;;;;;5.05;3.00;;;;;;;;;;4976593;28;20784;-65
2022/08/09 12:55:39;;;;;;;6.82;3.10;;;;;;;;;;4974810;28;20130;-65
2022/08/09 12:58:26;;;;;;;10.63;3.45;;;;;;;;;;4977032;28;20043;-64
2022/08/09 13:00:55;;;;;;;7.32;4.70;;;;;;;;;;4977202;28;20126;-64
2022/08/09 13:03:28;;;;;;;7.95;4.15;;;;;;;;;;4976824;28;20043;-64
2022/08/09 13:06:25;;;;;;;8.68;4.45;;;;;;;;;;4976828;28;20046;-64
2022/08/09 13:09:06;;;;;;;8.02;3.50;;;;;;;;;;4976805;28;20042;-64
2022/08/09 13:11:35;;;;;;;5.60;3.00;;;;;;;;;;4976724;28;20394;-64
2022/08/09 13:14:17;;;;;;;7.90;3.72;;;;;;;;;;4976645;28;20113;-65
2022/08/09 13:17:06;;;;;;;5.25;2.85;;;;;;;;;;4976827;28;20066;-64
2022/08/09 13:19:36;;;;;;;4.00;2.88;;;;;;;;;;4976659;28;20070;-64
2022/08/09 13:22:25;;;;;;;3.85;2.65;;;;;;;;;;4976631;28;20109;-64
2022/08/09 13:25:05;;;;;;;4.93;2.60;;;;;;;;;;4976639;28;20051;-64
2022/08/09 13:27:38;;;;;;;12.45;2.65;;;;;;;;;;4976447;28;20059;-64
2022/08/09 13:30:19;;;;;;;4.97;2.78;;;;;;;;;;4976582;28;20216;-64
2022/08/09 13:33:06;;;;;;;6.10;2.92;;;;;;;;;;4974374;28;20043;-64
2022/08/09 13:35:47;;;;;;;6.00;3.25;;;;;;;;;;4975660;28;20078;-64
2022/08/09 13:38:37;;;;;;;6.15;2.72;;;;;;;;;;4964007;28;20440;-63
2022/08/09 13:41:26;;;;;;;8.18;3.20;;;;;;;;;;4958234;28;20056;-63
2022/08/09 13:44:14;;;;;;;8.68;3.20;;;;;;;;;;4975665;28;20042;-63
2022/08/09 13:46:45;;;;;;;6.18;3.10;;;;;;;;;;4974614;28;20130;-64
2022/08/09 13:49:33;;;;;;;4.20;2.60;;;;;;;;;;4975543;28;20480;-63
2022/08/09 13:52:06;;;;;;;10.20;2.90;;;;;;;;;;4975703;28;20050;-62
2022/08/09 13:54:36;;;;;;;4.75;2.80;;;;;;;;;;4974456;28;20034;-63
2022/08/09 13:57:15;;;;;;;6.57;2.92;;;;;;;;;;4975523;28;20105;-63
2022/08/09 14:00:04;;;;;;;4.75;2.70;;;;;;;;;;4975596;28;20049;-63
2022/08/09 14:02:37;;;;;;;9.93;3.00;;;;;;;;;;4975500;28;20130;-63
2022/08/09 14:05:26;;;;;;;6.30;2.85;;;;;;;;;;4975815;28;20050;-62
2022/08/09 14:08:14;;;;;;;3.70;2.65;;;;;;;;;;4957243;28;20146;-62
2022/08/09 14:10:45;;;;;;;7.38;2.55;;;;;;;;;;4983734;28;20063;-62
2022/08/09 14:13:20;;;;;;;9.75;3.17;;;;;;;;;;4975052;28;20070;-62
2022/08/09 14:16:11;;;;;;;6.32;3.03;;;;;;;;;;4974940;28;20054;-64
2022/08/09 14:18:41;;;;;;;9.52;3.05;;;;;;;;;;4958193;28;20583;-62
2022/08/09 14:21:16;;;;;;;6.55;3.65;;;;;;;;;;4974928;28;20114;-62
2022/08/09 14:23:45;;;;;;;6.05;2.80;;;;;;;;;;4957445;28;20050;-63
2022/08/09 14:26:26;;;;;;;6.43;3.10;;;;;;;;;;4974623;28;20038;-63
2022/08/09 14:29:00;;;;;;;5.45;2.80;;;;;;;;;;4974968;28;20042;-63
2022/08/09 14:31:29;;;;;;;7.22;2.80;;;;;;;;;;4974833;28;20047;-64
2022/08/09 14:34:16;;;;;;;5.10;2.92;;;;;;;;;;4974702;28;20041;-64
2022/08/09 14:36:59;;;;;;;9.02;2.65;;;;;;;;;;4974474;28;20046;-64
2022/08/09 14:39:26;;;;;;;7.30;3.15;;;;;;;;;;4974674;28;20571;-64
2022/08/09 14:42:14;;;;;;;5.20;2.78;;;;;;;;;;4974269;28;20035;-64
2022/08/09 14:45:00;;;;;;;5.38;3.00;;;;;;;;;;4974551;28;20409;-64
2022/08/09 14:47:47;;;;;;;7.68;2.60;;;;;;;;;;4974986;28;20047;-63
2022/08/09 14:50:30;;;;;;;5.15;2.65;;;;;;;;;;4974477;28;20492;-63
2022/08/09 14:53:03;;;;;;;7.70;5.28;;;;;;;;;;4974118;28;20128;-63
2022/08/09 14:55:38;;;;;;;9.45;6.70;;;;;;;;;;4972513;28;20114;-64
2022/08/09 14:58:09;;;;;;;8.15;4.07;;;;;;;;;;4972982;28;20053;-64
2022/08/09 15:00:38;;;;;;;6.95;2.80;;;;;;;;;;4973505;28;20492;-64
2022/08/09 15:03:09;;;;;;;7.45;3.40;;;;;;;;;;4974168;28;20646;-64
2022/08/09 15:05:37;;;;;;;9.23;2.90;;;;;;;;;;4974057;28;20129;-64
2022/08/09 15:08:06;;;;;;;9.45;2.90;;;;;;;;;;4941185;28;20448;-63
2022/08/09 15:10:37;;;;;;;6.00;2.90;;;;;;;;;;4974267;28;20102;-64
2022/08/09 15:13:06;;;;;;;10.10;3.20;;;;;;;;;;4974302;28;20038;-64
2022/08/09 15:15:35;;;;;;;12.20;5.05;;;;;;;;;;4974261;28;20042;-64
2022/08/09 15:18:06;;;;;;;7.15;3.42;;;;;;;;;;4974028;28;20564;-64
2022/08/09 15:20:38;;;;;;;10.32;3.13;;;;;;;;;;4974034;28;20046;-64
2022/08/09 15:23:26;;;;;;;15.85;5.05;;;;;;;;;;4973991;28;20042;-63
2022/08/09 15:26:13;;;;;;;14.57;6.72;;;;;;;;;;4973849;28;20049;-64
2022/08/09 15:28:45;;;;;;;5.00;2.85;;;;;;;;;;4973739;28;20399;-64
2022/08/09 15:31:21;;;;;;;7.45;3.90;;;;;;;;;;4973732;28;20039;-63
2022/08/09 15:34:08;;;;;;;13.57;5.97;;;;;;;;;;4973979;28;20043;-64
2022/08/09 15:36:56;;;;;;;7.35;4.20;;;;;;;;;;4973867;28;20092;-63
2022/08/09 15:39:24;;;;;;;4.43;3.25;;;;;;;;;;4973877;28;20046;-63
2022/08/09 15:42:12;;;;;;;7.95;3.70;;;;;;;;;;4973802;28;20035;-63
2022/08/09 15:44:41;;;;;;;8.55;4.00;;;;;;;;;;4973451;28;20089;-64
2022/08/09 15:47:08;;;;;;;9.23;3.75;;;;;;;;;;4973495;28;20113;-64
2022/08/09 15:49:40;;;;;;;6.78;4.55;;;;;;;;;;4973488;28;20085;-63
2022/08/09 15:52:28;;;;;;;6.15;3.45;;;;;;;;;;4973526;28;20086;-64
2022/08/09 15:54:56;;;;;;;13.18;8.15;;;;;;;;;;4973389;28;20094;-64
2022/08/09 15:57:24;;;;;;;6.50;3.70;;;;;;;;;;4962677;28;20109;-66
2022/08/09 16:00:14;;;;;;;9.52;2.97;;;;;;;;;;4972564;28;20101;-65
2022/08/09 16:02:52;;;;;;;6.85;3.05;;;;;;;;;;4973040;28;20055;-64
2022/08/09 16:05:25;;;;;;;8.88;2.92;;;;;;;;;;4936008;29;20450;-64
2022/08/09 16:07:52;;;;;;;8.02;3.90;;;;;;;;;;4951513;29;20150;-64
2022/08/09 16:10:22;;;;;;;7.38;2.90;;;;;;;;;;4952487;28;20039;-64
2022/08/09 16:13:09;;;;;;;5.53;3.28;;;;;;;;;;4953582;28;20047;-64
2022/08/09 16:15:57;;;;;;;7.10;3.10;;;;;;;;;;4953747;28;20047;-64
2022/08/09 16:18:39;;;;;;;20.42;11.65;;;;;;;;;;4954683;28;20039;-64
2022/08/09 16:21:12;;;;;;;6.35;3.33;;;;;;;;;;4954290;29;20054;-64
2022/08/09 16:23:51;;;;;;;5.25;2.60;;;;;;;;;;4954139;28;20051;-64
2022/08/09 16:26:25;;;;;;;18.52;3.88;;;;;;;;;;4953183;28;20040;-64
2022/08/09 16:29:02;;;;;;;11.93;4.57;;;;;;;;;;4954087;28;20126;-64
2022/08/09 16:31:37;;;;;;;13.68;3.78;;;;;;;;;;4954104;29;20513;-65
2022/08/09 16:34:24;;;;;;;10.43;3.88;;;;;;;;;;4954452;28;20043;-64
2022/08/09 16:36:56;;;;;;;12.68;3.20;;;;;;;;;;4953975;28;20055;-64
2022/08/09 16:39:24;;;;;;;8.85;3.42;;;;;;;;;;4953647;28;20126;-64
2022/08/09 16:41:52;;;;;;;19.65;6.28;;;;;;;;;;4964368;28;20101;-64
2022/08/09 16:44:31;;;;;;;12.00;5.40;;;;;;;;;;4973282;28;20065;-63
2022/08/09 16:46:59;;;;;;;18.33;7.82;;;;;;;;;;4973017;28;20045;-63
2022/08/09 16:49:46;;;;;;;17.25;9.32;;;;;;;;;;4973370;28;20043;-63
2022/08/09 16:52:34;;;;;;;13.73;6.95;;;;;;;;;;4973143;28;20105;-62
2022/08/09 16:55:02;;;;;;;12.20;7.25;;;;;;;;;;4973184;28;20047;-62
2022/08/09 16:57:34;;;;;;;16.63;9.68;;;;;;;;;;4972895;28;20400;-62
2022/08/09 17:00:21;;;;;;;14.20;9.00;;;;;;;;;;4973221;28;20047;-62
2022/08/09 17:02:49;;;;;;;16.60;11.27;;;;;;;;;;4969706;28;20053;-62
2022/08/09 17:05:17;;;;;;;17.80;7.68;;;;;;;;;;4971666;28;20038;-62
2022/08/09 17:07:46;;;;;;;19.52;10.52;;;;;;;;;;4971867;28;20560;-61
2022/08/09 17:10:34;;;;;;;15.07;8.38;;;;;;;;;;4970742;28;20051;-62
2022/08/09 17:13:02;;;;;;;27.00;14.80;;;;;;;;;;4972453;28;20046;-61
2022/08/09 17:15:37;;;;;;;16.58;10.50;;;;;;;;;;4972577;28;20122;-62
2022/08/09 17:18:24;;;;;;;18.70;11.23;;;;;;;;;;4972291;28;20129;-62
2022/08/09 17:20:56;;;;;;;71.90;57.90;;;;;;;;;;4973860;28;20070;-62
2022/08/09 17:23:24;;;;;;;69.22;53.20;;;;;;;;;;4974332;28;20122;-62
2022/08/09 17:26:11;;;;;;;53.42;44.83;;;;;;;;;;4975280;28;20531;-62
2022/08/09 17:28:43;;;;;;;62.55;38.83;;;;;;;;;;4976013;28;20165;-62
2022/08/09 17:31:11;;;;;;;57.83;36.10;;;;;;;;;;4958727;28;20043;-62
2022/08/09 17:33:42;;;;;;;60.80;44.08;;;;;;;;;;4975737;28;20101;-64
2022/08/09 17:36:09;;;;;;;69.68;48.13;;;;;;;;;;4975537;28;20043;-63
2022/08/09 17:38:42;;;;;;;85.35;59.00;;;;;;;;;;4974096;28;20035;-64
2022/08/09 17:41:24;;;;;;;68.43;51.47;;;;;;;;;;4975596;28;20464;-62
2022/08/09 17:44:05;;;;;;;76.65;51.63;;;;;;;;;;4974242;28;20543;-62
2022/08/09 17:46:53;;;;;;;112.85;77.38;;;;;;;;;;4975167;28;20047;-64
2022/08/09 17:49:22;;;;;;;147.73;115.90;;;;;;;;;;4975294;28;20133;-64
2022/08/09 17:51:50;;;;;;;77.95;55.00;;;;;;;;;;4974961;28;20073;-63
2022/08/09 17:54:18;;;;;;;80.82;52.40;;;;;;;;;;4975056;28;20046;-63
2022/08/09 17:56:51;;;;;;;64.25;41.42;;;;;;;;;;4975141;28;20049;-63
2022/08/09 17:59:19;;;;;;;44.45;26.10;;;;;;;;;;4957836;28;20070;-62
2022/08/09 18:01:49;;;;;;;48.65;28.00;;;;;;;;;;4974866;28;20066;-64
2022/08/09 18:04:36;;;;;;;54.22;36.28;;;;;;;;;;4975050;28;20370;-64
2022/08/09 18:07:06;;;;;;;42.08;26.60;;;;;;;;;;4941626;28;20097;-63
2022/08/09 18:09:34;;;;;;;46.30;31.05;;;;;;;;;;4974289;28;20077;-62
2022/08/09 18:12:09;;;;;;;36.38;23.10;;;;;;;;;;4972488;28;20043;-64
2022/08/09 18:14:47;;;;;;;32.65;17.75;;;;;;;;;;4972153;28;20089;-63
2022/08/09 18:17:21;;;;;;;15.68;8.85;;;;;;;;;;4974918;28;20045;-64
2022/08/09 18:20:09;;;;;;;13.60;9.52;;;;;;;;;;4968153;28;20047;-65
2022/08/09 18:22:57;;;;;;;20.67;11.45;;;;;;;;;;4973871;28;20386;-63
2022/08/09 18:25:32;;;;;;;24.55;12.80;;;;;;;;;;4973930;28;20543;-62
2022/08/09 18:28:20;;;;;;;24.77;11.07;;;;;;;;;;4964316;28;20500;-63
2022/08/09 18:31:08;;;;;;;32.95;18.10;;;;;;;;;;4974545;28;20049;-63
2022/08/09 18:33:35;;;;;;;163.73;111.45;;;;;;;;;;4973911;28;20492;-63
2022/08/09 18:36:06;;;;;;;44.05;28.63;;;;;;;;;;4974338;28;20031;-63
2022/08/09 18:38:40;;;;;;;56.05;34.92;;;;;;;;;;4974715;28;20121;-64
2022/08/09 18:41:08;;;;;;;32.83;19.13;;;;;;;;;;4974477;28;20385;-63
2022/08/09 18:43:35;;;;;;;19.48;9.88;;;;;;;;;;4974275;28;20053;-62
2022/08/09 18:46:19;;;;;;;53.93;36.53;;;;;;;;;;4973455;28;20530;-63
2022/08/09 18:49:07;;;;;;;43.33;24.42;;;;;;;;;;4973514;28;20754;-63
2022/08/09 18:51:35;;;;;;;36.83;24.25;;;;;;;;;;4974163;28;20405;-64
2022/08/09 18:54:21;;;;;;;55.80;37.45;;;;;;;;;;4974224;28;20043;-63
2022/08/09 18:56:56;;;;;;;29.60;19.00;;;;;;;;;;4973796;28;20365;-64
2022/08/09 18:59:33;;;;;;;44.33;29.42;;;;;;;;;;4973772;28;20404;-62
2022/08/09 19:02:15;;;;;;;28.77;13.18;;;;;;;;;;4970762;28;20050;-62
2022/08/09 19:04:43;;;;;;;32.03;18.13;;;;;;;;;;4973453;28;20058;-63
2022/08/09 19:07:14;;;;;;;26.55;14.32;;;;;;;;;;4974080;28;20125;-63
2022/08/09 19:09:43;;;;;;;18.95;6.50;;;;;;;;;;4968421;28;20043;-63
2022/08/09 19:12:31;;;;;;;26.63;18.08;;;;;;;;;;4973661;28;20070;-64
2022/08/09 19:15:03;;;;;;;18.83;9.90;;;;;;;;;;4973689;28;20101;-64
2022/08/09 19:17:33;;;;;;;24.85;11.00;;;;;;;;;;4973633;28;20043;-64
2022/08/09 19:20:21;;;;;;;10.07;4.82;;;;;;;;;;4973987;28;20552;-64
2022/08/09 19:22:48;;;;;;;8.63;4.20;;;;;;;;;;4973869;28;20046;-64
2022/08/09 19:25:21;;;;;;;8.73;5.20;;;;;;;;;;4973948;28;20062;-64
2022/08/09 19:28:09;;;;;;;9.07;4.82;;;;;;;;;;4973610;28;20140;-65
2022/08/09 19:30:40;;;;;;;6.35;3.83;;;;;;;;;;4973790;28;20066;-65
2022/08/09 19:33:11;;;;;;;8.45;3.90;;;;;;;;;;4966473;28;20062;-63
2022/08/09 19:35:46;;;;;;;7.80;4.05;;;;;;;;;;4972755;28;20448;-65
2022/08/09 19:38:25;;;;;;;11.65;5.65;;;;;;;;;;4972516;28;20555;-62
2022/08/09 19:40:53;;;;;;;13.57;8.35;;;;;;;;;;4971915;28;20038;-63
2022/08/09 19:43:20;;;;;;;12.48;7.32;;;;;;;;;;4949137;28;20047;-64
2022/08/09 19:46:09;;;;;;;9.63;5.15;;;;;;;;;;4972890;28;20051;-64
2022/08/09 19:48:41;;;;;;;6.95;4.20;;;;;;;;;;4973446;28;20105;-63
2022/08/09 19:51:27;;;;;;;12.18;5.35;;;;;;;;;;4973309;28;20094;-63
2022/08/09 19:54:00;;;;;;;11.85;6.75;;;;;;;;;;4973404;28;20397;-63
2022/08/09 19:56:28;;;;;;;16.63;10.30;;;;;;;;;;4973398;28;20066;-64
2022/08/09 19:59:00;;;;;;;13.75;8.32;;;;;;;;;;4973294;28;20049;-63
2022/08/09 20:01:48;;;;;;;7.82;4.70;;;;;;;;;;4973186;28;20457;-63
2022/08/09 20:04:34;;;;;;;18.23;11.45;;;;;;;;;;4973153;28;20070;-63
2022/08/09 20:07:11;;;;;;;12.13;5.80;;;;;;;;;;4973590;28;20050;-63
2022/08/09 20:09:47;;;;;;;10.65;7.78;;;;;;;;;;4973228;28;20047;-63
2022/08/09 20:12:15;;;;;;;14.00;5.70;;;;;;;;;;4973372;28;20039;-66
2022/08/09 20:15:03;;;;;;;15.98;5.10;;;;;;;;;;4973389;28;20481;-65
2022/08/09 20:17:50;;;;;;;14.93;7.38;;;;;;;;;;4973313;28;20418;-66
2022/08/09 20:20:21;;;;;;;24.27;16.17;;;;;;;;;;4973227;28;20043;-64
2022/08/09 20:22:51;;;;;;;12.85;5.85;;;;;;;;;;4973058;28;20121;-63
2022/08/09 20:25:23;;;;;;;11.13;4.18;;;;;;;;;;4972957;28;20043;-64
2022/08/09 20:27:51;;;;;;;12.45;3.97;;;;;;;;;;4972872;28;20038;-64
2022/08/09 20:30:19;;;;;;;8.23;4.20;;;;;;;;;;4972236;28;20070;-64
2022/08/09 20:32:50;;;;;;;9.88;4.00;;;;;;;;;;4973600;28;20059;-63
2022/08/09 20:35:19;;;;;;;7.35;3.63;;;;;;;;;;4971978;28;20047;-63
2022/08/09 20:37:47;;;;;;;11.75;4.95;;;;;;;;;;4973116;28;20046;-64
2022/08/09 20:40:35;;;;;;;9.93;3.67;;;;;;;;;;4973287;28;20070;-63
2022/08/09 20:43:03;;;;;;;9.48;3.90;;;;;;;;;;4973046;28;20046;-64
2022/08/09 20:45:45;;;;;;;12.77;4.28;;;;;;;;;;4973201;28;20106;-63
2022/08/09 20:48:29;;;;;;;10.15;3.83;;;;;;;;;;4973315;28;20093;-63
2022/08/09 20:50:58;;;;;;;7.72;3.90;;;;;;;;;;4973337;28;20113;-63
2022/08/09 20:53:25;;;;;;;6.78;4.47;;;;;;;;;;4973615;28;20121;-64
2022/08/09 20:56:08;;;;;;;14.27;3.92;;;;;;;;;;4975031;28;20125;-64
2022/08/09 20:58:51;;;;;;;6.75;4.57;;;;;;;;;;4976920;28;20046;-64
2022/08/09 21:01:24;;;;;;;6.70;3.70;;;;;;;;;;4976878;28;20043;-63
2022/08/09 21:04:12;;;;;;;10.70;3.92;;;;;;;;;;4976829;28;20126;-63
2022/08/09 21:06:59;;;;;;;11.15;3.97;;;;;;;;;;4962628;28;20043;-63
2022/08/09 21:09:41;;;;;;;8.40;3.88;;;;;;;;;;4976557;28;20057;-64
2022/08/09 21:12:24;;;;;;;7.35;3.85;;;;;;;;;;4976629;28;20039;-63
2022/08/09 21:15:12;;;;;;;9.18;3.88;;;;;;;;;;4976609;28;20065;-63